YSWK weather

South West Rocks Airport
South West Rocks, New South Wales, Australia

Public forecast

Using degrees Celsius for public forecast. Weather courtesy of forecast.io.

Closest aviation weather report (METAR) to South West Rocks Airport

Report is more than 6 hours old.

Closest report is Port Macquarie Airport, 31.8 nm (59.0 km) SSW. Retrieved 2020/07/09 12:59 UTC (1 day ago):

YPMQ 091259Z AUTO 26003KT 7000 // NCD 11/11 Q1028

Closest aviation forecast (TAF) to South West Rocks Airport

Closest forecast is Taree Airport, 63.6 nm (117.8 km) SSW. Retrieved 2020/07/10 20:03 UTC (0 seconds ago):

TAF YTRE 101847Z 1020/1108 35004KT 9999 -SHRA SCT050 FM110300 36005KT 9999 NSW FEW050 INTER 1020/1101 4000 SHRA SCT020 PROB30 1020/1100 0200 FG BKN002